createdAt,value
2022-09-22T00:00:44.226Z,99.77
2022-09-22T00:01:44.251Z,99.77
2022-09-22T00:02:44.215Z,99.87
2022-09-22T00:03:44.144Z,99.97
2022-09-22T00:04:44.136Z,99.99
2022-09-22T00:05:44.127Z,99.99
2022-09-22T00:06:44.135Z,99.99
2022-09-22T00:07:44.103Z,99.97
2022-09-22T00:08:44.127Z,99.97
2022-09-22T00:09:44.067Z,99.87
2022-09-22T00:10:44.063Z,99.87
2022-09-22T00:11:44.067Z,99.77
2022-09-22T00:12:44.043Z,99.66
2022-09-22T00:13:44.027Z,99.56
2022-09-22T00:14:44.036Z,99.56
2022-09-22T00:15:43.995Z,99.56
2022-09-22T00:16:44.043Z,99.56
2022-09-22T00:17:44.004Z,99.56
2022-09-22T00:18:43.996Z,99.60
2022-09-22T00:19:43.975Z,99.71
2022-09-22T00:20:43.955Z,99.71
2022-09-22T00:21:43.935Z,99.51
2022-09-22T00:22:43.936Z,99.51
2022-09-22T00:23:43.927Z,99.51
2022-09-22T00:24:43.916Z,99.60
2022-09-22T00:25:43.887Z,99.60
2022-09-22T00:26:43.884Z,99.60
2022-09-22T00:27:43.876Z,99.71
2022-09-22T00:28:43.867Z,99.71
2022-09-22T00:29:43.843Z,99.91
2022-09-22T00:30:43.847Z,99.99
2022-09-22T00:31:43.890Z,99.99
2022-09-22T00:32:43.988Z,99.99
2022-09-22T00:33:43.795Z,99.99
2022-09-22T00:34:43.810Z,99.99
2022-09-22T00:35:43.775Z,99.99
2022-09-22T00:36:43.771Z,99.99
2022-09-22T00:37:43.769Z,99.99
2022-09-22T00:38:43.756Z,99.99
2022-09-22T00:39:43.727Z,99.99
2022-09-22T00:40:43.791Z,99.99
2022-09-22T00:41:43.737Z,99.99
2022-09-22T00:42:43.715Z,99.99
2022-09-22T00:43:43.696Z,99.99
2022-09-22T00:44:43.715Z,99.99
2022-09-22T00:45:43.708Z,99.99
2022-09-22T00:46:43.722Z,99.99
2022-09-22T00:47:43.639Z,99.99
2022-09-22T00:48:43.641Z,99.99
2022-09-22T00:49:43.648Z,99.99
2022-09-22T00:50:43.612Z,99.99
2022-09-22T00:51:43.608Z,99.99
2022-09-22T00:52:43.593Z,99.99
2022-09-22T00:53:43.569Z,99.99
2022-09-22T00:54:43.580Z,99.99
2022-09-22T00:55:43.648Z,99.99
2022-09-22T00:56:43.548Z,99.99
2022-09-22T00:57:43.528Z,99.99
2022-09-22T00:58:43.528Z,99.99
2022-09-22T00:59:43.496Z,99.99
2022-09-22T01:00:43.552Z,99.99
2022-09-22T01:01:44.983Z,99.99
2022-09-22T01:02:43.481Z,99.99
2022-09-22T01:03:43.468Z,99.99
2022-09-22T01:04:43.466Z,99.99
2022-09-22T01:05:43.479Z,99.99
2022-09-22T01:06:43.449Z,99.99
2022-09-22T01:07:43.420Z,99.99
2022-09-22T01:08:43.416Z,99.99
2022-09-22T01:09:43.388Z,99.99
2022-09-22T01:10:43.389Z,99.99
2022-09-22T01:11:43.391Z,99.99
2022-09-22T01:12:43.381Z,99.99
2022-09-22T01:13:43.357Z,99.99
2022-09-22T01:14:43.357Z,99.99
2022-09-22T01:15:43.371Z,99.99
2022-09-22T01:16:43.316Z,99.99
2022-09-22T01:17:43.302Z,99.99
2022-09-22T01:18:43.310Z,99.99
2022-09-22T01:19:43.284Z,99.99
2022-09-22T01:20:43.289Z,99.99
2022-09-22T01:21:43.261Z,99.99
2022-09-22T01:22:43.278Z,99.99
2022-09-22T01:23:43.238Z,99.99
2022-09-22T01:24:43.229Z,99.99
2022-09-22T01:25:43.209Z,99.99
2022-09-22T01:26:43.229Z,99.99
2022-09-22T01:27:43.231Z,99.99
2022-09-22T01:28:43.181Z,99.99
2022-09-22T01:29:43.177Z,99.99
2022-09-22T01:30:43.168Z,99.99
2022-09-22T01:31:43.176Z,99.99
2022-09-22T01:32:43.138Z,99.99
2022-09-22T01:33:43.141Z,99.99
2022-09-22T01:34:43.169Z,99.99
2022-09-22T01:35:43.090Z,99.99
2022-09-22T01:36:43.110Z,99.99
2022-09-22T01:37:43.077Z,99.99
2022-09-22T01:38:43.081Z,99.99
2022-09-22T01:39:43.057Z,99.99
2022-09-22T01:40:43.142Z,99.99
2022-09-22T01:41:43.039Z,99.99
2022-09-22T01:42:43.029Z,99.99
2022-09-22T01:43:43.011Z,99.99
2022-09-22T01:44:43.049Z,99.99
2022-09-22T01:45:43.018Z,99.99
2022-09-22T01:46:43.023Z,99.99
2022-09-22T01:47:42.970Z,99.99
2022-09-22T01:48:42.961Z,99.99
2022-09-22T01:49:42.937Z,99.99
2022-09-22T01:50:42.930Z,99.99
2022-09-22T01:51:42.938Z,99.99
2022-09-22T01:52:42.923Z,99.99
2022-09-22T01:53:42.897Z,99.99
2022-09-22T01:54:42.889Z,99.99
2022-09-22T01:55:42.881Z,99.99
2022-09-22T01:56:42.889Z,99.99
2022-09-22T01:57:42.849Z,99.99
2022-09-22T01:58:42.858Z,99.99
2022-09-22T01:59:42.837Z,99.99
2022-09-22T02:00:42.829Z,99.99
2022-09-22T02:01:42.880Z,99.99
2022-09-22T02:02:42.970Z,99.99
2022-09-22T02:03:42.778Z,99.99
2022-09-22T02:04:42.811Z,99.99
2022-09-22T02:05:42.773Z,99.99
2022-09-22T02:06:42.765Z,99.99
2022-09-22T02:07:42.738Z,99.99
2022-09-22T02:08:42.737Z,99.99
2022-09-22T02:09:42.711Z,99.99
2022-09-22T02:10:42.709Z,99.99
2022-09-22T02:11:42.714Z,99.99
2022-09-22T02:12:42.690Z,99.99
2022-09-22T02:13:42.669Z,99.99
2022-09-22T02:14:42.682Z,99.99
2022-09-22T02:15:42.697Z,99.99
2022-09-22T02:16:42.666Z,99.99
2022-09-22T02:17:42.632Z,99.99
2022-09-22T02:18:42.870Z,99.99
2022-09-22T02:19:42.603Z,99.99
2022-09-22T02:20:42.598Z,99.99
2022-09-22T02:21:42.598Z,99.99
2022-09-22T02:22:42.593Z,99.99
2022-09-22T02:23:42.562Z,99.99
2022-09-22T02:24:42.554Z,99.99
2022-09-22T02:25:42.538Z,99.99
2022-09-22T02:26:42.550Z,99.99
2022-09-22T02:27:42.510Z,99.99
2022-09-22T02:28:42.511Z,99.99
2022-09-22T02:29:42.502Z,99.99
2022-09-22T02:30:50.565Z,99.99
2022-09-22T02:31:43.552Z,99.99
2022-09-22T02:32:42.458Z,99.99
2022-09-22T02:33:42.450Z,99.99
2022-09-22T02:34:42.454Z,99.99
2022-09-22T02:35:42.422Z,99.99
2022-09-22T02:36:42.423Z,99.99
2022-09-22T02:37:42.490Z,99.99
2022-09-22T02:38:42.403Z,99.99
2022-09-22T02:39:42.380Z,99.99
2022-09-22T02:40:42.436Z,99.99
2022-09-22T02:41:42.351Z,99.99
2022-09-22T02:42:42.362Z,99.99
2022-09-22T02:43:42.490Z,99.99
2022-09-22T02:44:42.385Z,99.99
2022-09-22T02:45:42.310Z,99.99
2022-09-22T02:46:42.372Z,99.99
2022-09-22T02:47:42.290Z,99.99
2022-09-22T02:48:42.291Z,99.99
2022-09-22T02:49:42.262Z,99.99
2022-09-22T02:50:43.139Z,99.99
2022-09-22T02:51:42.251Z,99.99
2022-09-22T02:52:42.239Z,99.99
2022-09-22T02:53:42.223Z,99.99
2022-09-22T02:54:42.243Z,99.99
2022-09-22T02:55:42.202Z,99.99
2022-09-22T02:56:42.191Z,99.99
2022-09-22T02:57:42.171Z,99.99
2022-09-22T02:58:42.190Z,99.99
2022-09-22T02:59:42.160Z,99.99
2022-09-22T03:00:42.170Z,99.99
2022-09-22T03:01:42.179Z,99.99
2022-09-22T03:02:42.123Z,99.99
2022-09-22T03:03:42.119Z,99.99
2022-09-22T03:04:42.177Z,99.99
2022-09-22T03:05:42.082Z,99.99
2022-09-22T03:06:42.131Z,99.99
2022-09-22T03:07:42.051Z,99.99
2022-09-22T03:08:42.072Z,99.99
2022-09-22T03:09:42.047Z,99.99
2022-09-22T03:10:42.047Z,99.99
2022-09-22T03:11:42.011Z,99.99
2022-09-22T03:12:56.739Z,99.99
2022-09-22T03:13:43.007Z,99.99
2022-09-22T03:14:42.000Z,99.99
2022-09-22T03:15:41.992Z,99.99
2022-09-22T03:16:41.971Z,99.99
2022-09-22T03:17:41.963Z,99.99
2022-09-22T03:18:41.943Z,99.99
2022-09-22T03:19:41.911Z,99.99
2022-09-22T03:20:41.926Z,99.99
2022-09-22T03:21:41.914Z,99.99
2022-09-22T03:22:41.904Z,99.99
2022-09-22T03:23:41.872Z,99.99
2022-09-22T03:24:41.903Z,99.99
2022-09-22T03:25:41.851Z,99.99
2022-09-22T03:26:41.887Z,99.99
2022-09-22T03:27:41.856Z,99.99
2022-09-22T03:28:41.852Z,99.99
2022-09-22T03:29:41.831Z,99.99
2022-09-22T03:30:41.882Z,99.99
2022-09-22T03:31:41.791Z,99.99
2022-09-22T03:32:41.788Z,99.99
2022-09-22T03:33:41.783Z,99.99
2022-09-22T03:34:41.814Z,99.99
2022-09-22T03:35:41.764Z,99.99
2022-09-22T03:36:41.744Z,99.99
2022-09-22T03:37:41.723Z,99.99
2022-09-22T03:38:41.797Z,99.99
2022-09-22T03:39:41.724Z,99.99
2022-09-22T03:40:41.794Z,99.99
2022-09-22T03:41:41.685Z,99.99
2022-09-22T03:42:41.667Z,99.99
2022-09-22T03:43:41.651Z,99.99
2022-09-22T03:44:41.663Z,99.99
2022-09-22T03:45:41.744Z,99.99
2022-09-22T03:46:41.631Z,99.99
2022-09-22T03:47:41.625Z,99.99
2022-09-22T03:48:44.944Z,99.99
2022-09-22T03:49:41.605Z,99.99
2022-09-22T03:50:41.743Z,99.99
2022-09-22T03:51:41.572Z,99.99
2022-09-22T03:52:41.568Z,99.99
2022-09-22T03:53:41.540Z,99.99
2022-09-22T03:54:41.543Z,99.99
2022-09-22T03:55:41.521Z,99.99
2022-09-22T03:56:41.537Z,99.99
2022-09-22T03:57:41.505Z,99.99
2022-09-22T03:58:41.492Z,99.99
2022-09-22T03:59:41.485Z,99.99
2022-09-22T04:00:41.463Z,99.99
2022-09-22T04:01:41.557Z,99.99
2022-09-22T04:02:41.578Z,99.99
2022-09-22T04:03:41.444Z,99.99
2022-09-22T04:04:41.421Z,99.99
2022-09-22T04:05:41.413Z,99.99
2022-09-22T04:06:41.392Z,99.99
2022-09-22T04:07:41.404Z,99.99
2022-09-22T04:08:41.373Z,99.99
2022-09-22T04:09:41.364Z,99.99
2022-09-22T04:10:41.361Z,99.99
2022-09-22T04:11:41.364Z,99.99
2022-09-22T04:12:41.322Z,99.99
2022-09-22T04:13:46.078Z,99.99
2022-09-22T04:14:42.332Z,99.99
2022-09-22T04:15:41.333Z,99.99
2022-09-22T04:16:41.325Z,99.99
2022-09-22T04:17:41.282Z,99.99
2022-09-22T04:18:41.421Z,99.99
2022-09-22T04:19:41.254Z,99.99
2022-09-22T04:20:41.246Z,99.99
2022-09-22T04:21:41.262Z,99.99
2022-09-22T04:22:41.221Z,99.99
2022-09-22T04:23:41.233Z,99.99
2022-09-22T04:24:41.193Z,99.99
2022-09-22T04:25:41.183Z,99.99
2022-09-22T04:26:56.367Z,99.99
2022-09-22T04:27:42.161Z,99.99
2022-09-22T04:28:41.142Z,99.99
2022-09-22T04:29:41.162Z,99.99
2022-09-22T04:30:41.143Z,99.99
2022-09-22T04:31:41.142Z,99.99
2022-09-22T04:32:41.093Z,99.99
2022-09-22T04:33:41.106Z,99.99
2022-09-22T04:34:41.074Z,99.99
2022-09-22T04:35:41.102Z,99.99
2022-09-22T04:36:41.062Z,99.99
2022-09-22T04:37:41.054Z,99.99
2022-09-22T04:38:41.025Z,99.99
2022-09-22T04:39:41.026Z,99.99
2022-09-22T04:40:41.110Z,99.99
2022-09-22T04:41:41.038Z,99.99
2022-09-22T04:42:40.982Z,99.99
2022-09-22T04:43:40.994Z,99.99
2022-09-22T04:44:40.978Z,99.99
2022-09-22T04:45:40.989Z,99.99
2022-09-22T04:46:40.943Z,99.99
2022-09-22T04:47:40.942Z,99.99
2022-09-22T04:48:40.915Z,99.99
2022-09-22T04:49:41.870Z,99.99
2022-09-22T04:50:45.724Z,99.99
2022-09-22T04:51:41.884Z,99.99
2022-09-22T04:52:40.862Z,99.99
2022-09-22T04:53:40.863Z,99.99
2022-09-22T04:54:40.842Z,99.99
2022-09-22T04:55:40.863Z,99.99
2022-09-22T04:56:40.815Z,99.99
2022-09-22T04:57:40.854Z,99.99
2022-09-22T04:58:40.807Z,99.99
2022-09-22T04:59:40.807Z,99.99
2022-09-22T05:00:40.782Z,99.99
2022-09-22T05:01:40.856Z,99.99
2022-09-22T05:02:40.791Z,99.99
2022-09-22T05:03:40.821Z,99.99
2022-09-22T05:04:40.743Z,99.99
2022-09-22T05:05:40.736Z,99.99
2022-09-22T05:06:40.722Z,99.99
2022-09-22T05:07:40.714Z,99.99
2022-09-22T05:08:40.715Z,99.99
2022-09-22T05:09:40.689Z,99.99
2022-09-22T05:10:40.662Z,99.99
2022-09-22T05:11:40.668Z,99.99
2022-09-22T05:12:40.642Z,99.99
2022-09-22T05:13:40.642Z,99.99
2022-09-22T05:14:40.634Z,99.99
2022-09-22T05:15:40.634Z,99.99
2022-09-22T05:16:40.609Z,99.99
2022-09-22T05:17:40.603Z,99.99
2022-09-22T05:18:40.582Z,99.99
2022-09-22T05:19:40.833Z,99.99
2022-09-22T05:20:40.562Z,99.99
2022-09-22T05:21:40.562Z,99.99
2022-09-22T05:22:40.536Z,99.99
2022-09-22T05:23:40.542Z,99.99
2022-09-22T05:24:40.542Z,99.99
2022-09-22T05:25:40.522Z,99.99
2022-09-22T05:26:40.514Z,99.99
2022-09-22T05:27:40.495Z,99.99
2022-09-22T05:28:40.462Z,99.99
2022-09-22T05:29:40.466Z,99.99
2022-09-22T05:30:40.434Z,99.99
2022-09-22T05:31:40.498Z,99.99
2022-09-22T05:32:40.438Z,99.99
2022-09-22T05:33:40.422Z,99.99
2022-09-22T05:34:40.542Z,99.99
2022-09-22T05:35:40.423Z,99.99
2022-09-22T05:36:40.383Z,99.99
2022-09-22T05:37:40.374Z,99.99
2022-09-22T05:38:40.350Z,99.99
2022-09-22T05:39:40.354Z,99.99
2022-09-22T05:40:40.426Z,99.99
2022-09-22T05:41:40.334Z,99.99
2022-09-22T05:42:40.314Z,99.99
2022-09-22T05:43:40.303Z,99.99
2022-09-22T05:44:40.300Z,99.99
2022-09-22T05:45:40.341Z,99.99
2022-09-22T05:46:40.262Z,99.99
2022-09-22T05:47:40.294Z,99.99
2022-09-22T05:48:40.243Z,99.99
2022-09-22T05:49:40.234Z,99.99
2022-09-22T05:50:40.222Z,99.99
2022-09-22T05:51:40.214Z,99.99
2022-09-22T05:52:40.188Z,99.99
2022-09-22T05:53:40.314Z,99.99
2022-09-22T05:54:40.180Z,99.99
2022-09-22T05:55:40.175Z,99.99
2022-09-22T05:56:40.155Z,99.99
2022-09-22T05:57:40.159Z,99.99
2022-09-22T05:58:40.134Z,99.99
2022-09-22T05:59:40.463Z,99.99
2022-09-22T06:00:40.201Z,99.99
2022-09-22T06:01:40.115Z,99.99
2022-09-22T06:02:40.167Z,99.99
2022-09-22T06:03:40.083Z,99.99
2022-09-22T06:04:40.083Z,99.99
2022-09-22T06:05:40.052Z,99.99
2022-09-22T06:06:40.235Z,99.99
2022-09-22T06:07:40.027Z,99.99
2022-09-22T06:08:41.413Z,99.99
2022-09-22T06:09:40.022Z,99.99
2022-09-22T06:10:39.983Z,99.99
2022-09-22T06:11:39.996Z,99.99
2022-09-22T06:12:39.983Z,99.99
2022-09-22T06:13:39.967Z,99.99
2022-09-22T06:14:39.955Z,99.99
2022-09-22T06:15:39.952Z,99.99
2022-09-22T06:16:39.992Z,99.99
2022-09-22T06:17:39.955Z,99.99
2022-09-22T06:18:39.903Z,99.99
2022-09-22T06:19:39.922Z,99.99
2022-09-22T06:20:39.875Z,99.99
2022-09-22T06:21:39.875Z,99.99
2022-09-22T06:22:39.856Z,99.99
2022-09-22T06:23:42.861Z,99.99
2022-09-22T06:24:39.835Z,99.99
2022-09-22T06:25:39.839Z,99.99
2022-09-22T06:26:39.803Z,99.99
2022-09-22T06:27:39.823Z,99.99
2022-09-22T06:28:39.795Z,99.99
2022-09-22T06:29:39.783Z,99.99
2022-09-22T06:30:39.763Z,99.99
2022-09-22T06:31:39.816Z,99.99
2022-09-22T06:32:39.744Z,99.99
2022-09-22T06:33:39.755Z,99.99
2022-09-22T06:34:39.723Z,99.99
2022-09-22T06:35:39.727Z,99.99
2022-09-22T06:36:39.727Z,99.99
2022-09-22T06:37:39.703Z,99.99
2022-09-22T06:38:39.735Z,99.99
2022-09-22T06:39:39.663Z,99.99
2022-09-22T06:40:39.734Z,99.99
2022-09-22T06:41:39.644Z,99.99
2022-09-22T06:42:39.623Z,99.99
2022-09-22T06:43:39.644Z,99.99
2022-09-22T06:44:39.636Z,99.99
2022-09-22T06:45:39.627Z,99.99
2022-09-22T06:46:39.624Z,99.99
2022-09-22T06:47:39.583Z,99.99
2022-09-22T06:48:39.627Z,99.99
2022-09-22T06:49:39.563Z,99.99
2022-09-22T06:50:39.544Z,99.99
2022-09-22T06:51:39.535Z,99.99
2022-09-22T06:52:39.524Z,99.99
2022-09-22T06:53:39.537Z,99.99
2022-09-22T06:54:39.500Z,99.99
2022-09-22T06:55:39.484Z,99.99
2022-09-22T06:56:39.504Z,99.99
2022-09-22T06:57:39.472Z,99.99
2022-09-22T06:59:05.577Z,99.99
2022-09-22T06:59:40.445Z,99.99
2022-09-22T07:00:39.527Z,99.99
2022-09-22T07:01:39.592Z,99.99
2022-09-22T07:02:39.404Z,99.99
2022-09-22T07:03:39.404Z,99.99
2022-09-22T07:04:39.396Z,99.99
2022-09-22T07:05:39.386Z,99.99
2022-09-22T07:06:39.376Z,99.99
2022-09-22T07:07:39.364Z,99.99
2022-09-22T07:08:39.358Z,99.99
2022-09-22T07:09:39.337Z,99.99
2022-09-22T07:10:39.316Z,99.99
2022-09-22T07:11:40.466Z,99.99
2022-09-22T07:12:39.297Z,99.99
2022-09-22T07:13:39.306Z,99.99
2022-09-22T07:14:39.290Z,99.99
2022-09-22T07:15:39.256Z,99.99
2022-09-22T07:16:39.308Z,99.99
2022-09-22T07:17:39.236Z,99.99
2022-09-22T07:18:39.224Z,99.99
2022-09-22T07:19:39.224Z,99.99
2022-09-22T07:20:39.204Z,99.99
2022-09-22T07:21:39.360Z,99.99
2022-09-22T07:22:39.182Z,99.99
2022-09-22T07:23:39.184Z,99.99
2022-09-22T07:24:39.169Z,99.99
2022-09-22T07:25:39.164Z,99.99
2022-09-22T07:26:39.125Z,99.99
2022-09-22T07:27:39.140Z,99.99
2022-09-22T07:28:39.744Z,99.99
2022-09-22T07:29:39.116Z,99.99
2022-09-22T07:30:39.085Z,99.99
2022-09-22T07:31:39.134Z,99.99
2022-09-22T07:32:39.077Z,99.99
2022-09-22T07:33:39.064Z,99.99
2022-09-22T07:34:39.044Z,99.99
2022-09-22T07:35:39.045Z,99.99
2022-09-22T07:36:39.028Z,99.99
2022-09-22T07:37:39.032Z,99.99
2022-09-22T07:38:39.009Z,99.99
2022-09-22T07:39:38.984Z,99.79
2022-09-22T07:40:39.075Z,99.59
2022-09-22T07:41:38.976Z,98.97
2022-09-22T07:42:38.958Z,98.67
2022-09-22T07:43:38.977Z,98.32
2022-09-22T07:44:43.715Z,97.91
2022-09-22T07:45:39.928Z,98.00
2022-09-22T07:46:38.957Z,97.60
2022-09-22T07:47:38.904Z,97.70
2022-09-22T07:48:39.245Z,97.86
2022-09-22T07:49:38.877Z,97.86
2022-09-22T07:50:38.869Z,96.83
2022-09-22T07:51:38.865Z,96.48
2022-09-22T07:52:38.838Z,96.28
2022-09-22T07:53:38.841Z,95.87
2022-09-22T07:54:38.877Z,95.66
2022-09-22T07:55:38.816Z,94.49
2022-09-22T07:56:38.817Z,93.77
2022-09-22T07:57:38.797Z,93.43
2022-09-22T07:58:38.770Z,93.84
2022-09-22T07:59:38.785Z,93.93
2022-09-22T08:00:38.768Z,93.93
2022-09-22T08:01:38.775Z,93.99
2022-09-22T08:02:38.738Z,93.99
2022-09-22T08:03:38.737Z,93.79
2022-09-22T08:04:38.720Z,92.77
2022-09-22T08:05:38.810Z,92.36
2022-09-22T08:06:38.686Z,92.32
2022-09-22T08:07:38.677Z,91.50
2022-09-22T08:08:38.917Z,90.99
2022-09-22T08:09:38.649Z,90.33
2022-09-22T08:10:38.637Z,90.64
2022-09-22T08:11:38.647Z,89.06
2022-09-22T08:12:38.611Z,87.43
2022-09-22T08:13:38.618Z,86.98
2022-09-22T08:14:38.610Z,87.38
2022-09-22T08:15:38.578Z,89.63
2022-09-22T08:16:38.586Z,90.31
2022-09-22T08:17:38.557Z,88.47
2022-09-22T08:18:38.557Z,86.63
2022-09-22T08:19:38.537Z,86.80
2022-09-22T08:20:42.876Z,87.51
2022-09-22T08:21:47.964Z,86.18
2022-09-22T08:22:39.517Z,86.65
2022-09-22T08:23:38.498Z,85.33
2022-09-22T08:24:38.497Z,84.51
2022-09-22T08:25:38.465Z,83.56
2022-09-22T08:26:38.461Z,84.37
2022-09-22T08:27:38.451Z,84.47
2022-09-22T08:28:38.609Z,84.74
2022-09-22T08:29:38.440Z,83.68
2022-09-22T08:30:38.420Z,79.10
2022-09-22T08:31:38.411Z,78.55
2022-09-22T08:32:38.400Z,79.77
2022-09-22T08:33:38.422Z,79.13
2022-09-22T08:34:38.389Z,79.13
2022-09-22T08:35:38.350Z,78.78
2022-09-22T08:36:38.345Z,77.87
2022-09-22T08:37:38.330Z,78.64
2022-09-22T08:38:38.330Z,76.31
2022-09-22T08:39:38.319Z,77.53
2022-09-22T08:40:38.346Z,78.34
2022-09-22T08:41:38.338Z,77.97
2022-09-22T08:42:38.290Z,75.43
2022-09-22T08:43:38.269Z,78.23
2022-09-22T08:44:38.292Z,75.49
2022-09-22T08:45:38.250Z,76.67
2022-09-22T08:46:38.286Z,73.97
2022-09-22T08:47:38.210Z,75.39
2022-09-22T08:48:38.282Z,74.95
2022-09-22T08:49:38.190Z,76.54
2022-09-22T08:50:38.202Z,72.68
2022-09-22T08:51:38.171Z,72.17
2022-09-22T08:52:38.170Z,71.67
2022-09-22T08:53:38.151Z,73.66
2022-09-22T08:54:38.146Z,72.85
2022-09-22T08:55:38.143Z,69.44
2022-09-22T08:56:38.131Z,70.45
2022-09-22T08:57:38.105Z,69.57
2022-09-22T08:58:38.102Z,70.42
2022-09-22T08:59:38.090Z,71.73
2022-09-22T09:00:42.475Z,70.52
2022-09-22T09:01:38.114Z,71.64
2022-09-22T09:02:38.133Z,72.11
2022-09-22T09:03:38.031Z,72.28
2022-09-22T09:04:38.062Z,69.92
2022-09-22T09:05:38.023Z,69.27
2022-09-22T09:06:38.011Z,68.66
2022-09-22T09:07:37.983Z,68.90
2022-09-22T09:08:37.991Z,70.72
2022-09-22T09:09:37.991Z,72.11
2022-09-22T09:10:37.974Z,70.93
2022-09-22T09:11:37.950Z,68.84
2022-09-22T09:12:37.956Z,68.20
2022-09-22T09:13:37.932Z,67.36
2022-09-22T09:14:37.922Z,66.32
2022-09-22T09:15:38.059Z,65.14
2022-09-22T09:16:38.128Z,65.47
2022-09-22T09:17:37.874Z,66.41
2022-09-22T09:18:37.884Z,67.55
2022-09-22T09:19:37.862Z,68.67
2022-09-22T09:20:37.994Z,67.19
2022-09-22T09:21:37.834Z,67.16
2022-09-22T09:22:37.823Z,65.41
2022-09-22T09:25:38.803Z,63.99
2022-09-22T09:26:37.782Z,65.73
2022-09-22T09:27:37.766Z,65.36
2022-09-22T09:28:37.774Z,65.64
2022-09-22T09:29:37.755Z,64.93
2022-09-22T09:30:37.755Z,64.32
2022-09-22T09:31:37.734Z,65.16
2022-09-22T09:32:37.716Z,66.07
2022-09-22T09:33:37.695Z,66.35
2022-09-22T09:34:37.807Z,66.75
2022-09-22T09:35:41.191Z,65.94
2022-09-22T09:36:37.677Z,66.04
2022-09-22T09:37:37.647Z,67.22
2022-09-22T09:38:37.667Z,65.57
2022-09-22T09:39:37.615Z,66.15
2022-09-22T09:40:37.664Z,65.48
2022-09-22T09:41:37.615Z,63.30
2022-09-22T09:42:37.607Z,62.19
2022-09-22T09:43:37.587Z,62.87
2022-09-22T09:44:37.588Z,62.57
2022-09-22T09:45:37.559Z,62.97
2022-09-22T09:46:37.616Z,60.75
2022-09-22T09:47:37.646Z,60.75
2022-09-22T09:48:37.539Z,61.08
2022-09-22T09:49:37.524Z,61.32
2022-09-22T09:50:37.527Z,61.14
2022-09-22T09:51:39.768Z,61.51
2022-09-22T09:52:37.496Z,61.94
2022-09-22T09:53:41.035Z,63.15
2022-09-22T09:54:37.482Z,63.38
2022-09-22T09:55:37.487Z,64.39
2022-09-22T09:56:37.443Z,63.89
2022-09-22T09:57:38.211Z,64.29
2022-09-22T09:58:37.428Z,65.27
2022-09-22T09:59:37.412Z,66.08
2022-09-22T10:00:37.399Z,66.22
2022-09-22T10:01:37.422Z,64.47
2022-09-22T10:02:37.372Z,60.58
2022-09-22T10:03:37.391Z,61.25
2022-09-22T10:04:37.359Z,60.42
2022-09-22T10:05:37.343Z,59.62
2022-09-22T10:06:37.339Z,59.28
2022-09-22T10:07:37.387Z,58.58
2022-09-22T10:08:37.312Z,59.16
2022-09-22T10:09:37.389Z,58.86
2022-09-22T10:10:37.297Z,59.06
2022-09-22T10:11:37.280Z,57.10
2022-09-22T10:12:37.280Z,60.65
2022-09-22T10:13:37.252Z,59.84
2022-09-22T10:14:37.243Z,59.88
2022-09-22T10:15:37.293Z,61.59
2022-09-22T10:16:37.235Z,61.52
2022-09-22T10:17:37.356Z,61.08
2022-09-22T10:18:37.192Z,59.60
2022-09-22T10:19:37.173Z,59.40
2022-09-22T10:20:37.184Z,59.80
2022-09-22T10:21:37.174Z,59.37
2022-09-22T10:22:39.797Z,59.77
2022-09-22T10:23:37.133Z,58.84
2022-09-22T10:24:37.144Z,58.44
2022-09-22T10:25:37.112Z,58.94
2022-09-22T10:26:37.160Z,59.64
2022-09-22T10:27:37.105Z,61.16
2022-09-22T10:28:37.083Z,60.75
2022-09-22T10:29:37.063Z,59.04
2022-09-22T10:30:37.052Z,59.24
2022-09-22T10:31:37.044Z,59.01
2022-09-22T10:32:37.100Z,58.01
2022-09-22T10:33:41.704Z,56.67
2022-09-22T10:34:38.066Z,57.07
2022-09-22T10:35:36.995Z,59.42
2022-09-22T10:36:37.008Z,59.22
2022-09-22T10:37:38.656Z,59.31
2022-09-22T10:38:37.056Z,59.75
2022-09-22T10:39:36.955Z,58.64
2022-09-22T10:40:37.009Z,57.73
2022-09-22T10:41:36.937Z,57.40
2022-09-22T10:42:36.955Z,58.23
2022-09-22T10:43:36.908Z,58.84
2022-09-22T10:44:40.178Z,59.27
2022-09-22T10:45:37.877Z,60.75
2022-09-22T10:46:36.949Z,61.66
2022-09-22T10:47:36.856Z,60.35
2022-09-22T10:48:36.860Z,57.73
2022-09-22T10:49:36.845Z,57.93
2022-09-22T10:50:36.839Z,57.96
2022-09-22T10:51:36.840Z,57.48
2022-09-22T10:52:36.828Z,58.52
2022-09-22T10:53:36.801Z,59.42
2022-09-22T10:54:36.933Z,58.45
2022-09-22T10:55:36.772Z,59.45
2022-09-22T10:56:36.780Z,60.16
2022-09-22T10:57:37.102Z,59.45
2022-09-22T10:58:36.748Z,60.06
2022-09-22T10:59:36.728Z,59.35
2022-09-22T11:00:39.063Z,58.65
2022-09-22T11:01:36.752Z,58.25
2022-09-22T11:02:36.720Z,59.76
2022-09-22T11:03:36.680Z,59.56
2022-09-22T11:04:36.772Z,57.91
2022-09-22T11:05:36.669Z,57.43
2022-09-22T11:06:36.660Z,57.54
2022-09-22T11:07:36.656Z,58.95
2022-09-22T11:08:36.633Z,59.53
2022-09-22T11:09:36.680Z,60.13
2022-09-22T11:10:36.621Z,58.80
2022-09-22T11:11:39.492Z,60.81
2022-09-22T11:12:36.601Z,60.78
2022-09-22T11:13:36.564Z,59.07
2022-09-22T11:14:36.573Z,57.05
2022-09-22T11:15:36.676Z,56.75
2022-09-22T11:16:36.544Z,58.67
2022-09-22T11:17:36.552Z,58.26
2022-09-22T11:18:39.677Z,57.76
2022-09-22T11:19:36.492Z,57.05
2022-09-22T11:20:36.506Z,56.24
2022-09-22T11:21:36.480Z,56.88
2022-09-22T11:22:36.493Z,57.18
2022-09-22T11:23:36.452Z,57.08
2022-09-22T11:24:36.472Z,57.89
2022-09-22T11:25:36.444Z,59.40
2022-09-22T11:26:36.424Z,57.89
2022-09-22T11:27:36.457Z,57.25
2022-09-22T11:28:36.427Z,58.16
2022-09-22T11:29:36.385Z,58.34
2022-09-22T11:30:36.426Z,55.71
2022-09-22T11:31:36.357Z,55.91
2022-09-22T11:32:36.366Z,57.03
2022-09-22T11:33:36.366Z,58.03
2022-09-22T11:34:36.356Z,56.52
2022-09-22T11:35:36.316Z,57.43
2022-09-22T11:36:36.316Z,58.54
2022-09-22T11:37:36.297Z,58.23
2022-09-22T11:38:36.296Z,58.94
2022-09-22T11:39:36.290Z,57.73
2022-09-22T11:40:36.426Z,58.03
2022-09-22T11:41:36.248Z,58.94
2022-09-22T11:42:36.249Z,56.42
2022-09-22T11:43:36.225Z,57.53
2022-09-22T11:44:36.255Z,57.12
2022-09-22T11:45:36.217Z,57.43
2022-09-22T11:46:36.208Z,55.11
2022-09-22T11:47:36.209Z,56.85
2022-09-22T11:48:36.176Z,53.42
2022-09-22T11:49:36.176Z,54.73
2022-09-22T11:50:36.157Z,53.34
2022-09-22T11:51:36.151Z,54.16
2022-09-22T11:52:36.140Z,54.46
2022-09-22T11:53:36.129Z,54.36
2022-09-22T11:54:36.121Z,56.17
2022-09-22T11:55:36.097Z,55.87
2022-09-22T11:56:36.101Z,56.77
2022-09-22T11:57:36.126Z,55.54
2022-09-22T11:58:36.082Z,56.15
2022-09-22T11:59:36.048Z,56.42
2022-09-22T12:00:36.057Z,54.71
2022-09-22T12:01:36.021Z,55.19
2022-09-22T12:02:36.115Z,54.75
2022-09-22T12:03:36.163Z,54.75
2022-09-22T12:04:36.009Z,56.84
2022-09-22T12:05:35.981Z,54.60
2022-09-22T12:06:36.601Z,52.80
2022-09-22T12:07:35.979Z,54.28
2022-09-22T12:08:35.973Z,53.67
2022-09-22T12:09:36.887Z,50.63
2022-09-22T12:10:35.954Z,48.90
2022-09-22T12:11:35.923Z,50.01
2022-09-22T12:12:35.925Z,50.21
2022-09-22T12:13:35.885Z,49.08
2022-09-22T12:14:35.902Z,48.48
2022-09-22T12:15:35.961Z,48.38
2022-09-22T12:16:35.873Z,47.77
2022-09-22T12:17:35.865Z,48.46
2022-09-22T12:18:35.865Z,49.54
2022-09-22T12:19:35.866Z,48.23
2022-09-22T12:20:35.833Z,47.85
2022-09-22T12:21:35.818Z,49.08
2022-09-22T12:22:35.825Z,49.76
2022-09-22T12:23:35.807Z,48.16
2022-09-22T12:24:35.786Z,49.74
2022-09-22T12:25:48.004Z,48.13
2022-09-22T12:26:36.757Z,47.45
2022-09-22T12:27:35.738Z,49.36
2022-09-22T12:28:35.737Z,50.74
2022-09-22T12:29:35.737Z,49.13
2022-09-22T12:30:35.753Z,49.04
2022-09-22T12:31:35.707Z,50.13
2022-09-22T12:32:35.713Z,50.74
2022-09-22T12:33:35.685Z,50.04
2022-09-22T12:34:35.687Z,49.84
2022-09-22T12:35:35.658Z,49.16
2022-09-22T12:36:35.638Z,49.08
2022-09-22T12:37:35.666Z,49.51
2022-09-22T12:38:35.617Z,49.83
2022-09-22T12:39:35.630Z,50.73
2022-09-22T12:40:35.686Z,50.53
2022-09-22T12:41:35.590Z,50.93
2022-09-22T12:42:35.581Z,52.64
2022-09-22T12:43:35.577Z,50.23
2022-09-22T12:44:35.549Z,49.53
2022-09-22T12:45:35.557Z,50.56
2022-09-22T12:46:35.709Z,51.74
2022-09-22T12:47:35.530Z,52.22
2022-09-22T12:48:35.527Z,52.49
2022-09-22T12:49:35.501Z,52.47
2022-09-22T12:50:35.495Z,51.74
2022-09-22T12:51:35.513Z,50.94
2022-09-22T12:52:35.480Z,51.72
2022-09-22T12:53:38.073Z,50.89
2022-09-22T12:54:36.450Z,49.19